sensor_id;sensor_type;location;lat;lon;timestamp;P1;durP1;ratioP1;P2;durP2;ratioP2
6193;SDS011;3130;41.564;23.280;2023-04-15T00:02:17;7.40;;;5.83;;
6193;SDS011;3130;41.564;23.280;2023-04-15T00:04:45;9.57;;;6.30;;
6193;SDS011;3130;41.564;23.280;2023-04-15T00:07:12;6.87;;;5.30;;
6193;SDS011;3130;41.564;23.280;2023-04-15T00:09:41;7.17;;;6.47;;
6193;SDS011;3130;41.564;23.280;2023-04-15T00:12:09;7.53;;;5.10;;
6193;SDS011;3130;41.564;23.280;2023-04-15T00:14:36;7.13;;;6.00;;
6193;SDS011;3130;41.564;23.280;2023-04-15T00:17:03;6.37;;;5.30;;
6193;SDS011;3130;41.564;23.280;2023-04-15T00:19:30;6.00;;;5.33;;
6193;SDS011;3130;41.564;23.280;2023-04-15T00:21:58;7.03;;;6.37;;
6193;SDS011;3130;41.564;23.280;2023-04-15T00:24:25;6.37;;;5.23;;
6193;SDS011;3130;41.564;23.280;2023-04-15T00:26:54;10.07;;;5.80;;
6193;SDS011;3130;41.564;23.280;2023-04-15T00:29:22;7.37;;;5.03;;
6193;SDS011;3130;41.564;23.280;2023-04-15T00:31:49;6.97;;;5.50;;
6193;SDS011;3130;41.564;23.280;2023-04-15T00:34:16;7.30;;;5.33;;
6193;SDS011;3130;41.564;23.280;2023-04-15T00:36:43;8.10;;;5.50;;
6193;SDS011;3130;41.564;23.280;2023-04-15T00:39:10;13.43;;;7.17;;
6193;SDS011;3130;41.564;23.280;2023-04-15T00:41:37;18.00;;;10.63;;
6193;SDS011;3130;41.564;23.280;2023-04-15T00:44:06;14.97;;;10.73;;
6193;SDS011;3130;41.564;23.280;2023-04-15T00:46:34;16.90;;;12.23;;
6193;SDS011;3130;41.564;23.280;2023-04-15T00:49:02;13.93;;;10.60;;
6193;SDS011;3130;41.564;23.280;2023-04-15T00:51:30;17.10;;;10.93;;
6193;SDS011;3130;41.564;23.280;2023-04-15T00:54:00;13.83;;;8.73;;
6193;SDS011;3130;41.564;23.280;2023-04-15T00:56:27;12.13;;;8.83;;
6193;SDS011;3130;41.564;23.280;2023-04-15T00:58:55;10.57;;;8.17;;
6193;SDS011;3130;41.564;23.280;2023-04-15T01:01:24;7.97;;;6.87;;
6193;SDS011;3130;41.564;23.280;2023-04-15T01:03:55;8.87;;;7.30;;
6193;SDS011;3130;41.564;23.280;2023-04-15T01:06:23;11.23;;;8.80;;
6193;SDS011;3130;41.564;23.280;2023-04-15T01:08:51;12.40;;;9.40;;
6193;SDS011;3130;41.564;23.280;2023-04-15T01:11:19;11.30;;;9.30;;
6193;SDS011;3130;41.564;23.280;2023-04-15T01:13:46;11.17;;;9.37;;
6193;SDS011;3130;41.564;23.280;2023-04-15T01:16:13;11.53;;;9.03;;
6193;SDS011;3130;41.564;23.280;2023-04-15T01:18:43;13.87;;;9.97;;
6193;SDS011;3130;41.564;23.280;2023-04-15T01:21:10;13.97;;;9.20;;
6193;SDS011;3130;41.564;23.280;2023-04-15T01:23:37;11.87;;;8.83;;
6193;SDS011;3130;41.564;23.280;2023-04-15T01:26:06;11.07;;;9.00;;
6193;SDS011;3130;41.564;23.280;2023-04-15T01:28:34;10.30;;;8.57;;
6193;SDS011;3130;41.564;23.280;2023-04-15T01:31:08;11.60;;;7.43;;
6193;SDS011;3130;41.564;23.280;2023-04-15T01:33:36;10.27;;;7.70;;
6193;SDS011;3130;41.564;23.280;2023-04-15T01:36:04;9.13;;;7.17;;
6193;SDS011;3130;41.564;23.280;2023-04-15T01:38:34;7.87;;;6.20;;
6193;SDS011;3130;41.564;23.280;2023-04-15T01:41:01;11.00;;;6.80;;
6193;SDS011;3130;41.564;23.280;2023-04-15T01:43:30;8.53;;;4.77;;
6193;SDS011;3130;41.564;23.280;2023-04-15T01:45:57;6.87;;;4.70;;
6193;SDS011;3130;41.564;23.280;2023-04-15T01:48:24;7.93;;;5.00;;
6193;SDS011;3130;41.564;23.280;2023-04-15T01:50:51;6.27;;;5.20;;
6193;SDS011;3130;41.564;23.280;2023-04-15T01:53:21;6.87;;;5.43;;
6193;SDS011;3130;41.564;23.280;2023-04-15T01:55:48;8.47;;;6.03;;
6193;SDS011;3130;41.564;23.280;2023-04-15T01:58:16;8.83;;;6.67;;
6193;SDS011;3130;41.564;23.280;2023-04-15T02:00:44;7.13;;;6.40;;
6193;SDS011;3130;41.564;23.280;2023-04-15T02:03:12;11.97;;;6.83;;
6193;SDS011;3130;41.564;23.280;2023-04-15T02:05:39;17.57;;;12.43;;
6193;SDS011;3130;41.564;23.280;2023-04-15T02:08:06;18.97;;;13.80;;
6193;SDS011;3130;41.564;23.280;2023-04-15T02:10:33;17.97;;;14.13;;
6193;SDS011;3130;41.564;23.280;2023-04-15T02:13:00;16.03;;;14.33;;
6193;SDS011;3130;41.564;23.280;2023-04-15T02:15:27;16.40;;;10.77;;
6193;SDS011;3130;41.564;23.280;2023-04-15T02:17:56;12.83;;;10.73;;
6193;SDS011;3130;41.564;23.280;2023-04-15T02:20:24;12.17;;;10.17;;
6193;SDS011;3130;41.564;23.280;2023-04-15T02:22:52;12.83;;;9.47;;
6193;SDS011;3130;41.564;23.280;2023-04-15T02:25:19;12.97;;;9.10;;
6193;SDS011;3130;41.564;23.280;2023-04-15T02:27:46;12.97;;;10.00;;
6193;SDS011;3130;41.564;23.280;2023-04-15T02:30:13;12.53;;;9.87;;
6193;SDS011;3130;41.564;23.280;2023-04-15T02:32:40;12.83;;;9.60;;
6193;SDS011;3130;41.564;23.280;2023-04-15T02:35:10;12.23;;;9.70;;
6193;SDS011;3130;41.564;23.280;2023-04-15T02:37:37;14.00;;;9.13;;
6193;SDS011;3130;41.564;23.280;2023-04-15T02:40:08;11.93;;;9.33;;
6193;SDS011;3130;41.564;23.280;2023-04-15T02:42:36;11.67;;;9.57;;
6193;SDS011;3130;41.564;23.280;2023-04-15T02:45:04;13.77;;;9.40;;
6193;SDS011;3130;41.564;23.280;2023-04-15T02:47:32;18.23;;;13.63;;
6193;SDS011;3130;41.564;23.280;2023-04-15T02:50:00;15.33;;;10.73;;
6193;SDS011;3130;41.564;23.280;2023-04-15T02:52:29;12.70;;;10.27;;
6193;SDS011;3130;41.564;23.280;2023-04-15T02:54:56;15.37;;;9.67;;
6193;SDS011;3130;41.564;23.280;2023-04-15T02:57:25;13.70;;;8.67;;
6193;SDS011;3130;41.564;23.280;2023-04-15T02:59:53;13.20;;;8.13;;
6193;SDS011;3130;41.564;23.280;2023-04-15T03:02:20;11.50;;;7.73;;
6193;SDS011;3130;41.564;23.280;2023-04-15T03:04:47;13.20;;;9.07;;
6193;SDS011;3130;41.564;23.280;2023-04-15T03:07:14;10.53;;;8.00;;
6193;SDS011;3130;41.564;23.280;2023-04-15T03:09:44;13.87;;;7.83;;
6193;SDS011;3130;41.564;23.280;2023-04-15T03:12:12;14.87;;;9.23;;
6193;SDS011;3130;41.564;23.280;2023-04-15T03:14:39;14.33;;;8.63;;
6193;SDS011;3130;41.564;23.280;2023-04-15T03:17:06;11.37;;;8.97;;
6193;SDS011;3130;41.564;23.280;2023-04-15T03:19:33;12.90;;;10.00;;
6193;SDS011;3130;41.564;23.280;2023-04-15T03:22:00;17.03;;;10.40;;
6193;SDS011;3130;41.564;23.280;2023-04-15T03:24:27;12.93;;;8.73;;
6193;SDS011;3130;41.564;23.280;2023-04-15T03:26:56;10.73;;;8.37;;
6193;SDS011;3130;41.564;23.280;2023-04-15T03:29:23;12.27;;;9.57;;
6193;SDS011;3130;41.564;23.280;2023-04-15T03:31:50;13.97;;;10.17;;
6193;SDS011;3130;41.564;23.280;2023-04-15T03:34:18;15.47;;;9.80;;
6193;SDS011;3130;41.564;23.280;2023-04-15T03:36:45;12.93;;;8.73;;
6193;SDS011;3130;41.564;23.280;2023-04-15T03:39:12;13.13;;;9.57;;
6193;SDS011;3130;41.564;23.280;2023-04-15T03:41:40;13.20;;;9.33;;
6193;SDS011;3130;41.564;23.280;2023-04-15T03:44:08;10.47;;;8.40;;
6193;SDS011;3130;41.564;23.280;2023-04-15T03:46:35;13.20;;;10.57;;
6193;SDS011;3130;41.564;23.280;2023-04-15T03:49:02;13.20;;;9.07;;
6193;SDS011;3130;41.564;23.280;2023-04-15T03:51:29;14.17;;;9.33;;
6193;SDS011;3130;41.564;23.280;2023-04-15T03:53:56;12.27;;;9.80;;
6193;SDS011;3130;41.564;23.280;2023-04-15T03:56:23;11.90;;;8.73;;
6193;SDS011;3130;41.564;23.280;2023-04-15T03:58:51;11.53;;;8.37;;
6193;SDS011;3130;41.564;23.280;2023-04-15T04:01:19;11.37;;;9.43;;
6193;SDS011;3130;41.564;23.280;2023-04-15T04:03:46;14.47;;;10.37;;
6193;SDS011;3130;41.564;23.280;2023-04-15T04:06:13;13.47;;;9.03;;
6193;SDS011;3130;41.564;23.280;2023-04-15T04:08:41;15.00;;;8.80;;
6193;SDS011;3130;41.564;23.280;2023-04-15T04:11:08;14.00;;;9.93;;
6193;SDS011;3130;41.564;23.280;2023-04-15T04:13:35;15.00;;;10.17;;
6193;SDS011;3130;41.564;23.280;2023-04-15T04:16:02;17.53;;;9.27;;
6193;SDS011;3130;41.564;23.280;2023-04-15T04:18:31;13.40;;;9.07;;
6193;SDS011;3130;41.564;23.280;2023-04-15T04:20:58;15.07;;;9.97;;
6193;SDS011;3130;41.564;23.280;2023-04-15T04:23:26;11.80;;;8.77;;
6193;SDS011;3130;41.564;23.280;2023-04-15T04:25:53;17.20;;;13.03;;
6193;SDS011;3130;41.564;23.280;2023-04-15T04:28:20;14.80;;;12.03;;
6193;SDS011;3130;41.564;23.280;2023-04-15T04:30:47;16.53;;;12.60;;
6193;SDS011;3130;41.564;23.280;2023-04-15T04:33:14;17.40;;;14.40;;
6193;SDS011;3130;41.564;23.280;2023-04-15T04:35:43;18.07;;;13.27;;
6193;SDS011;3130;41.564;23.280;2023-04-15T04:38:10;19.90;;;14.27;;
6193;SDS011;3130;41.564;23.280;2023-04-15T04:40:37;19.60;;;15.93;;
6193;SDS011;3130;41.564;23.280;2023-04-15T04:43:04;19.53;;;12.90;;
6193;SDS011;3130;41.564;23.280;2023-04-15T04:45:31;24.83;;;17.87;;
6193;SDS011;3130;41.564;23.280;2023-04-15T04:47:58;18.53;;;13.60;;
6193;SDS011;3130;41.564;23.280;2023-04-15T04:50:25;30.97;;;20.73;;
6193;SDS011;3130;41.564;23.280;2023-04-15T04:52:54;21.00;;;16.30;;
6193;SDS011;3130;41.564;23.280;2023-04-15T04:55:21;23.50;;;15.63;;
6193;SDS011;3130;41.564;23.280;2023-04-15T04:57:48;18.70;;;14.43;;
6193;SDS011;3130;41.564;23.280;2023-04-15T05:00:15;23.83;;;15.77;;
6193;SDS011;3130;41.564;23.280;2023-04-15T05:02:43;19.70;;;15.43;;
6193;SDS011;3130;41.564;23.280;2023-04-15T05:05:10;24.27;;;15.80;;
6193;SDS011;3130;41.564;23.280;2023-04-15T05:07:38;27.53;;;17.33;;
6193;SDS011;3130;41.564;23.280;2023-04-15T05:10:07;26.83;;;18.47;;
6193;SDS011;3130;41.564;23.280;2023-04-15T05:12:35;24.40;;;17.83;;
6193;SDS011;3130;41.564;23.280;2023-04-15T05:15:03;27.20;;;21.60;;
6193;SDS011;3130;41.564;23.280;2023-04-15T05:17:30;20.57;;;16.67;;
6193;SDS011;3130;41.564;23.280;2023-04-15T05:19:59;22.43;;;15.23;;
6193;SDS011;3130;41.564;23.280;2023-04-15T05:22:26;21.77;;;16.07;;
6193;SDS011;3130;41.564;23.280;2023-04-15T05:24:53;24.23;;;15.40;;
6193;SDS011;3130;41.564;23.280;2023-04-15T05:27:21;24.17;;;17.40;;
6193;SDS011;3130;41.564;23.280;2023-04-15T05:29:49;23.80;;;16.90;;
6193;SDS011;3130;41.564;23.280;2023-04-15T05:32:16;23.47;;;17.77;;
6193;SDS011;3130;41.564;23.280;2023-04-15T05:34:43;27.33;;;18.17;;
6193;SDS011;3130;41.564;23.280;2023-04-15T05:37:10;33.50;;;24.53;;
6193;SDS011;3130;41.564;23.280;2023-04-15T05:39:37;36.10;;;23.47;;
6193;SDS011;3130;41.564;23.280;2023-04-15T05:42:04;42.10;;;25.03;;
6193;SDS011;3130;41.564;23.280;2023-04-15T05:44:32;40.87;;;31.10;;
6193;SDS011;3130;41.564;23.280;2023-04-15T05:46:59;43.67;;;28.37;;
6193;SDS011;3130;41.564;23.280;2023-04-15T05:49:27;43.30;;;29.27;;
6193;SDS011;3130;41.564;23.280;2023-04-15T05:51:54;48.93;;;30.10;;
6193;SDS011;3130;41.564;23.280;2023-04-15T05:54:21;44.50;;;32.17;;
6193;SDS011;3130;41.564;23.280;2023-04-15T05:56:48;56.67;;;36.03;;
6193;SDS011;3130;41.564;23.280;2023-04-15T05:59:15;55.53;;;38.43;;
6193;SDS011;3130;41.564;23.280;2023-04-15T06:01:44;57.43;;;36.83;;
6193;SDS011;3130;41.564;23.280;2023-04-15T06:04:12;53.40;;;36.90;;
6193;SDS011;3130;41.564;23.280;2023-04-15T06:06:39;51.87;;;35.80;;
6193;SDS011;3130;41.564;23.280;2023-04-15T06:09:06;47.90;;;35.30;;
6193;SDS011;3130;41.564;23.280;2023-04-15T06:11:33;49.13;;;32.30;;
6193;SDS011;3130;41.564;23.280;2023-04-15T06:14:00;44.03;;;35.27;;
6193;SDS011;3130;41.564;23.280;2023-04-15T06:16:27;53.27;;;34.33;;
6193;SDS011;3130;41.564;23.280;2023-04-15T06:18:56;54.90;;;32.27;;
6193;SDS011;3130;41.564;23.280;2023-04-15T06:21:23;55.60;;;33.10;;
6193;SDS011;3130;41.564;23.280;2023-04-15T06:23:51;49.77;;;32.80;;
6193;SDS011;3130;41.564;23.280;2023-04-15T06:26:18;41.80;;;29.17;;
6193;SDS011;3130;41.564;23.280;2023-04-15T06:28:46;38.90;;;27.53;;
6193;SDS011;3130;41.564;23.280;2023-04-15T06:31:13;37.73;;;26.10;;
6193;SDS011;3130;41.564;23.280;2023-04-15T06:33:40;41.93;;;28.20;;
6193;SDS011;3130;41.564;23.280;2023-04-15T06:36:08;57.67;;;34.00;;
6193;SDS011;3130;41.564;23.280;2023-04-15T06:38:35;46.53;;;29.70;;
6193;SDS011;3130;41.564;23.280;2023-04-15T06:41:02;39.73;;;24.87;;
6193;SDS011;3130;41.564;23.280;2023-04-15T06:43:30;39.13;;;25.47;;
6193;SDS011;3130;41.564;23.280;2023-04-15T06:45:57;35.87;;;26.60;;
6193;SDS011;3130;41.564;23.280;2023-04-15T06:48:24;33.23;;;24.90;;
6193;SDS011;3130;41.564;23.280;2023-04-15T06:50:51;37.73;;;25.47;;
6193;SDS011;3130;41.564;23.280;2023-04-15T06:53:20;34.57;;;24.23;;
6193;SDS011;3130;41.564;23.280;2023-04-15T06:55:48;30.27;;;21.20;;
6193;SDS011;3130;41.564;23.280;2023-04-15T06:58:15;29.67;;;22.07;;
6193;SDS011;3130;41.564;23.280;2023-04-15T07:00:42;31.97;;;24.07;;
6193;SDS011;3130;41.564;23.280;2023-04-15T07:03:10;33.73;;;25.00;;
6193;SDS011;3130;41.564;23.280;2023-04-15T07:05:39;32.63;;;22.80;;
6193;SDS011;3130;41.564;23.280;2023-04-15T07:08:06;32.03;;;24.37;;
6193;SDS011;3130;41.564;23.280;2023-04-15T07:10:35;31.93;;;23.40;;
6193;SDS011;3130;41.564;23.280;2023-04-15T07:13:02;39.40;;;27.37;;
6193;SDS011;3130;41.564;23.280;2023-04-15T07:15:30;40.83;;;30.80;;
6193;SDS011;3130;41.564;23.280;2023-04-15T07:17:56;41.30;;;27.90;;
6193;SDS011;3130;41.564;23.280;2023-04-15T07:20:23;37.93;;;27.23;;
6193;SDS011;3130;41.564;23.280;2023-04-15T07:22:51;41.27;;;29.00;;
6193;SDS011;3130;41.564;23.280;2023-04-15T07:25:18;33.03;;;24.70;;
6193;SDS011;3130;41.564;23.280;2023-04-15T07:27:47;38.67;;;27.03;;
6193;SDS011;3130;41.564;23.280;2023-04-15T07:30:14;34.57;;;24.63;;
6193;SDS011;3130;41.564;23.280;2023-04-15T07:32:41;32.67;;;24.23;;
6193;SDS011;3130;41.564;23.280;2023-04-15T07:35:08;30.10;;;22.43;;
6193;SDS011;3130;41.564;23.280;2023-04-15T07:37:36;32.90;;;24.27;;
6193;SDS011;3130;41.564;23.280;2023-04-15T07:40:04;30.07;;;22.97;;
6193;SDS011;3130;41.564;23.280;2023-04-15T07:42:33;24.20;;;17.83;;
6193;SDS011;3130;41.564;23.280;2023-04-15T07:45:02;27.80;;;20.20;;
6193;SDS011;3130;41.564;23.280;2023-04-15T07:47:29;24.67;;;18.27;;
6193;SDS011;3130;41.564;23.280;2023-04-15T07:49:56;16.13;;;13.60;;
6193;SDS011;3130;41.564;23.280;2023-04-15T07:52:24;20.73;;;14.83;;
6193;SDS011;3130;41.564;23.280;2023-04-15T07:54:51;16.20;;;12.67;;
6193;SDS011;3130;41.564;23.280;2023-04-15T07:57:18;24.40;;;19.00;;
6193;SDS011;3130;41.564;23.280;2023-04-15T07:59:45;15.27;;;12.87;;
6193;SDS011;3130;41.564;23.280;2023-04-15T08:02:14;20.57;;;12.60;;
6193;SDS011;3130;41.564;23.280;2023-04-15T08:04:41;17.13;;;13.20;;
6193;SDS011;3130;41.564;23.280;2023-04-15T08:07:08;25.47;;;18.17;;
6193;SDS011;3130;41.564;23.280;2023-04-15T08:09:36;18.63;;;13.97;;
6193;SDS011;3130;41.564;23.280;2023-04-15T08:12:03;18.73;;;13.43;;
6193;SDS011;3130;41.564;23.280;2023-04-15T08:14:32;17.83;;;13.20;;
6193;SDS011;3130;41.564;23.280;2023-04-15T08:16:59;14.70;;;11.83;;
6193;SDS011;3130;41.564;23.280;2023-04-15T08:19:27;15.73;;;12.03;;
6193;SDS011;3130;41.564;23.280;2023-04-15T08:21:54;15.77;;;12.57;;
6193;SDS011;3130;41.564;23.280;2023-04-15T08:24:21;16.50;;;12.97;;
6193;SDS011;3130;41.564;23.280;2023-04-15T08:26:50;19.50;;;14.27;;
6193;SDS011;3130;41.564;23.280;2023-04-15T08:29:17;15.13;;;12.10;;
6193;SDS011;3130;41.564;23.280;2023-04-15T08:31:44;17.00;;;13.83;;
6193;SDS011;3130;41.564;23.280;2023-04-15T08:34:12;17.20;;;13.97;;
6193;SDS011;3130;41.564;23.280;2023-04-15T08:36:41;16.23;;;13.63;;
6193;SDS011;3130;41.564;23.280;2023-04-15T08:39:08;18.87;;;11.90;;
6193;SDS011;3130;41.564;23.280;2023-04-15T08:41:38;15.40;;;11.70;;
6193;SDS011;3130;41.564;23.280;2023-04-15T08:44:07;17.07;;;11.30;;
6193;SDS011;3130;41.564;23.280;2023-04-15T08:46:35;12.87;;;10.13;;
6193;SDS011;3130;41.564;23.280;2023-04-15T08:49:02;10.80;;;8.90;;
6193;SDS011;3130;41.564;23.280;2023-04-15T08:51:30;11.60;;;9.27;;
6193;SDS011;3130;41.564;23.280;2023-04-15T08:53:59;15.37;;;9.50;;
6193;SDS011;3130;41.564;23.280;2023-04-15T08:56:28;13.47;;;9.27;;
6193;SDS011;3130;41.564;23.280;2023-04-15T08:58:57;14.50;;;11.17;;
6193;SDS011;3130;41.564;23.280;2023-04-15T09:01:24;12.90;;;10.27;;
6193;SDS011;3130;41.564;23.280;2023-04-15T09:03:52;12.10;;;8.67;;
6193;SDS011;3130;41.564;23.280;2023-04-15T09:06:20;9.20;;;6.83;;
6193;SDS011;3130;41.564;23.280;2023-04-15T09:08:47;13.07;;;6.47;;
6193;SDS011;3130;41.564;23.280;2023-04-15T09:11:16;13.40;;;8.50;;
6193;SDS011;3130;41.564;23.280;2023-04-15T09:13:43;10.87;;;7.93;;
6193;SDS011;3130;41.564;23.280;2023-04-15T09:16:12;11.10;;;7.33;;
6193;SDS011;3130;41.564;23.280;2023-04-15T09:18:40;9.33;;;6.03;;
6193;SDS011;3130;41.564;23.280;2023-04-15T09:21:07;10.37;;;7.20;;
6193;SDS011;3130;41.564;23.280;2023-04-15T09:23:36;10.53;;;7.33;;
6193;SDS011;3130;41.564;23.280;2023-04-15T09:26:04;10.40;;;6.47;;
6193;SDS011;3130;41.564;23.280;2023-04-15T09:28:33;8.40;;;5.10;;
6193;SDS011;3130;41.564;23.280;2023-04-15T09:31:07;10.40;;;7.03;;
6193;SDS011;3130;41.564;23.280;2023-04-15T09:33:34;13.00;;;5.93;;
6193;SDS011;3130;41.564;23.280;2023-04-15T09:36:02;12.50;;;6.70;;
6193;SDS011;3130;41.564;23.280;2023-04-15T09:38:31;7.47;;;5.77;;
6193;SDS011;3130;41.564;23.280;2023-04-15T09:40:58;7.27;;;5.60;;
6193;SDS011;3130;41.564;23.280;2023-04-15T09:43:37;6.30;;;4.63;;
6193;SDS011;3130;41.564;23.280;2023-04-15T09:46:06;6.33;;;5.20;;
6193;SDS011;3130;41.564;23.280;2023-04-15T09:48:33;6.87;;;5.03;;
6193;SDS011;3130;41.564;23.280;2023-04-15T09:51:00;5.90;;;4.93;;
6193;SDS011;3130;41.564;23.280;2023-04-15T09:53:27;6.67;;;5.97;;
6193;SDS011;3130;41.564;23.280;2023-04-15T09:55:55;8.03;;;5.10;;
6193;SDS011;3130;41.564;23.280;2023-04-15T09:58:23;9.83;;;6.37;;
6193;SDS011;3130;41.564;23.280;2023-04-15T10:00:55;7.70;;;6.07;;
6193;SDS011;3130;41.564;23.280;2023-04-15T10:03:23;7.57;;;5.07;;
6193;SDS011;3130;41.564;23.280;2023-04-15T10:05:52;9.27;;;6.13;;
6193;SDS011;3130;41.564;23.280;2023-04-15T10:08:21;10.47;;;5.63;;
6193;SDS011;3130;41.564;23.280;2023-04-15T10:10:50;6.37;;;4.47;;
6193;SDS011;3130;41.564;23.280;2023-04-15T10:13:18;6.50;;;4.70;;
6193;SDS011;3130;41.564;23.280;2023-04-15T10:15:48;5.20;;;4.57;;
6193;SDS011;3130;41.564;23.280;2023-04-15T10:18:24;7.27;;;4.03;;
6193;SDS011;3130;41.564;23.280;2023-04-15T10:20:52;6.30;;;4.33;;
6193;SDS011;3130;41.564;23.280;2023-04-15T10:23:21;4.90;;;4.10;;
6193;SDS011;3130;41.564;23.280;2023-04-15T10:25:49;5.23;;;3.93;;
6193;SDS011;3130;41.564;23.280;2023-04-15T10:28:18;4.00;;;3.00;;
6193;SDS011;3130;41.564;23.280;2023-04-15T10:30:47;5.47;;;3.67;;
6193;SDS011;3130;41.564;23.280;2023-04-15T10:33:14;4.97;;;3.47;;
6193;SDS011;3130;41.564;23.280;2023-04-15T10:35:46;2.90;;;2.67;;
6193;SDS011;3130;41.564;23.280;2023-04-15T10:38:31;3.93;;;2.63;;
6193;SDS011;3130;41.564;23.280;2023-04-15T10:41:15;2.83;;;2.47;;
6193;SDS011;3130;41.564;23.280;2023-04-15T10:43:47;2.50;;;2.30;;
6193;SDS011;3130;41.564;23.280;2023-04-15T10:46:23;3.27;;;2.47;;
6193;SDS011;3130;41.564;23.280;2023-04-15T10:49:05;5.87;;;2.40;;
6193;SDS011;3130;41.564;23.280;2023-04-15T10:51:36;5.40;;;2.70;;
6193;SDS011;3130;41.564;23.280;2023-04-15T10:54:07;4.50;;;2.60;;
6193;SDS011;3130;41.564;23.280;2023-04-15T10:56:40;3.50;;;2.87;;
6193;SDS011;3130;41.564;23.280;2023-04-15T10:59:08;3.70;;;2.40;;
6193;SDS011;3130;41.564;23.280;2023-04-15T11:01:51;3.97;;;2.20;;
6193;SDS011;3130;41.564;23.280;2023-04-15T11:07:36;5.57;;;2.47;;
6193;SDS011;3130;41.564;23.280;2023-04-15T11:13:21;3.13;;;2.83;;
6193;SDS011;3130;41.564;23.280;2023-04-15T11:15:54;3.00;;;2.40;;
6193;SDS011;3130;41.564;23.280;2023-04-15T11:18:25;2.20;;;2.00;;
6193;SDS011;3130;41.564;23.280;2023-04-15T11:20:54;2.97;;;2.50;;
6193;SDS011;3130;41.564;23.280;2023-04-15T11:23:28;4.03;;;2.33;;
6193;SDS011;3130;41.564;23.280;2023-04-15T11:25:57;2.90;;;2.60;;
6193;SDS011;3130;41.564;23.280;2023-04-15T11:28:26;3.60;;;3.13;;
6193;SDS011;3130;41.564;23.280;2023-04-15T11:30:54;4.63;;;2.90;;
6193;SDS011;3130;41.564;23.280;2023-04-15T11:33:23;2.40;;;2.10;;
6193;SDS011;3130;41.564;23.280;2023-04-15T11:35:52;3.20;;;2.23;;
6193;SDS011;3130;41.564;23.280;2023-04-15T11:38:20;7.37;;;2.60;;
6193;SDS011;3130;41.564;23.280;2023-04-15T11:40:49;5.77;;;2.20;;
6193;SDS011;3130;41.564;23.280;2023-04-15T11:43:18;2.27;;;2.07;;
6193;SDS011;3130;41.564;23.280;2023-04-15T11:45:47;2.70;;;1.83;;
6193;SDS011;3130;41.564;23.280;2023-04-15T11:48:16;2.27;;;2.00;;
6193;SDS011;3130;41.564;23.280;2023-04-15T11:50:43;3.33;;;1.90;;
6193;SDS011;3130;41.564;23.280;2023-04-15T11:53:12;2.00;;;1.77;;
6193;SDS011;3130;41.564;23.280;2023-04-15T11:55:43;2.30;;;2.10;;
6193;SDS011;3130;41.564;23.280;2023-04-15T11:58:13;2.13;;;1.93;;
6193;SDS011;3130;41.564;23.280;2023-04-15T12:00:45;1.80;;;1.57;;
6193;SDS011;3130;41.564;23.280;2023-04-15T12:03:14;2.20;;;1.87;;
6193;SDS011;3130;41.564;23.280;2023-04-15T12:08:50;2.67;;;1.57;;
6193;SDS011;3130;41.564;23.280;2023-04-15T12:11:32;2.27;;;2.03;;
6193;SDS011;3130;41.564;23.280;2023-04-15T12:14:12;2.67;;;1.67;;
6193;SDS011;3130;41.564;23.280;2023-04-15T12:16:47;4.40;;;2.27;;
6193;SDS011;3130;41.564;23.280;2023-04-15T12:19:16;5.83;;;2.07;;
6193;SDS011;3130;41.564;23.280;2023-04-15T12:21:48;2.90;;;2.23;;
6193;SDS011;3130;41.564;23.280;2023-04-15T12:24:18;2.43;;;2.07;;
6193;SDS011;3130;41.564;23.280;2023-04-15T12:26:48;2.60;;;2.40;;
6193;SDS011;3130;41.564;23.280;2023-04-15T12:29:18;4.50;;;2.03;;
6193;SDS011;3130;41.564;23.280;2023-04-15T12:31:47;3.70;;;2.07;;
6193;SDS011;3130;41.564;23.280;2023-04-15T12:34:15;4.50;;;2.47;;
6193;SDS011;3130;41.564;23.280;2023-04-15T12:36:44;2.47;;;1.80;;
6193;SDS011;3130;41.564;23.280;2023-04-15T12:39:11;2.33;;;2.13;;
6193;SDS011;3130;41.564;23.280;2023-04-15T12:41:38;2.53;;;2.30;;
6193;SDS011;3130;41.564;23.280;2023-04-15T12:44:06;3.33;;;2.23;;
6193;SDS011;3130;41.564;23.280;2023-04-15T12:46:34;4.47;;;2.20;;
6193;SDS011;3130;41.564;23.280;2023-04-15T12:49:01;6.47;;;2.90;;
6193;SDS011;3130;41.564;23.280;2023-04-15T12:51:28;3.93;;;2.43;;
6193;SDS011;3130;41.564;23.280;2023-04-15T12:53:57;2.30;;;2.03;;
6193;SDS011;3130;41.564;23.280;2023-04-15T12:56:24;3.40;;;2.30;;
6193;SDS011;3130;41.564;23.280;2023-04-15T12:58:51;2.50;;;2.10;;
6193;SDS011;3130;41.564;23.280;2023-04-15T13:01:18;3.30;;;1.97;;
6193;SDS011;3130;41.564;23.280;2023-04-15T13:03:47;5.67;;;2.80;;
6193;SDS011;3130;41.564;23.280;2023-04-15T13:06:15;3.73;;;2.63;;
6193;SDS011;3130;41.564;23.280;2023-04-15T13:08:43;3.50;;;2.30;;
6193;SDS011;3130;41.564;23.280;2023-04-15T13:11:10;1.90;;;1.80;;
6193;SDS011;3130;41.564;23.280;2023-04-15T13:16:23;2.00;;;1.80;;
6193;SDS011;3130;41.564;23.280;2023-04-15T13:18:51;3.93;;;2.70;;
6193;SDS011;3130;41.564;23.280;2023-04-15T13:21:18;2.70;;;2.00;;
6193;SDS011;3130;41.564;23.280;2023-04-15T13:23:46;2.10;;;1.90;;
6193;SDS011;3130;41.564;23.280;2023-04-15T13:26:14;1.97;;;1.77;;
6193;SDS011;3130;41.564;23.280;2023-04-15T13:28:41;2.90;;;1.93;;
6193;SDS011;3130;41.564;23.280;2023-04-15T13:31:08;5.23;;;2.43;;
6193;SDS011;3130;41.564;23.280;2023-04-15T13:33:35;2.53;;;1.80;;
6193;SDS011;3130;41.564;23.280;2023-04-15T13:36:05;3.07;;;2.27;;
6193;SDS011;3130;41.564;23.280;2023-04-15T13:38:32;3.80;;;2.10;;
6193;SDS011;3130;41.564;23.280;2023-04-15T13:40:59;2.03;;;1.93;;
6193;SDS011;3130;41.564;23.280;2023-04-15T13:43:26;3.20;;;2.03;;
6193;SDS011;3130;41.564;23.280;2023-04-15T13:45:53;2.57;;;1.90;;
6193;SDS011;3130;41.564;23.280;2023-04-15T13:48:20;1.93;;;1.83;;
6193;SDS011;3130;41.564;23.280;2023-04-15T13:50:47;3.87;;;2.27;;
6193;SDS011;3130;41.564;23.280;2023-04-15T13:53:16;2.00;;;1.60;;
6193;SDS011;3130;41.564;23.280;2023-04-15T13:55:43;3.57;;;2.10;;
6193;SDS011;3130;41.564;23.280;2023-04-15T13:58:10;3.80;;;2.20;;
6193;SDS011;3130;41.564;23.280;2023-04-15T14:00:37;2.47;;;1.80;;
6193;SDS011;3130;41.564;23.280;2023-04-15T14:03:04;2.33;;;2.03;;
6193;SDS011;3130;41.564;23.280;2023-04-15T14:05:31;2.07;;;1.87;;
6193;SDS011;3130;41.564;23.280;2023-04-15T14:07:58;2.23;;;1.57;;
6193;SDS011;3130;41.564;23.280;2023-04-15T14:10:28;2.87;;;2.20;;
6193;SDS011;3130;41.564;23.280;2023-04-15T14:12:55;2.00;;;1.73;;
6193;SDS011;3130;41.564;23.280;2023-04-15T14:15:22;5.63;;;4.03;;
6193;SDS011;3130;41.564;23.280;2023-04-15T14:17:49;2.50;;;2.27;;
6193;SDS011;3130;41.564;23.280;2023-04-15T14:20:16;3.23;;;2.03;;
6193;SDS011;3130;41.564;23.280;2023-04-15T14:22:43;4.23;;;2.57;;
6193;SDS011;3130;41.564;23.280;2023-04-15T14:25:11;2.70;;;2.50;;
6193;SDS011;3130;41.564;23.280;2023-04-15T14:27:39;3.30;;;2.27;;
6193;SDS011;3130;41.564;23.280;2023-04-15T14:30:06;2.53;;;1.80;;
6193;SDS011;3130;41.564;23.280;2023-04-15T14:32:34;3.57;;;2.70;;
6193;SDS011;3130;41.564;23.280;2023-04-15T14:35:01;2.93;;;1.90;;
6193;SDS011;3130;41.564;23.280;2023-04-15T14:37:29;2.23;;;1.00;;
6193;SDS011;3130;41.564;23.280;2023-04-15T14:39:56;2.13;;;1.90;;
6193;SDS011;3130;41.564;23.280;2023-04-15T14:42:23;3.93;;;1.37;;
6193;SDS011;3130;41.564;23.280;2023-04-15T14:44:52;3.40;;;1.90;;
6193;SDS011;3130;41.564;23.280;2023-04-15T14:47:19;3.20;;;1.87;;
6193;SDS011;3130;41.564;23.280;2023-04-15T14:49:46;2.03;;;1.87;;
6193;SDS011;3130;41.564;23.280;2023-04-15T14:52:13;2.83;;;1.63;;
6193;SDS011;3130;41.564;23.280;2023-04-15T14:54:40;1.30;;;1.30;;
6193;SDS011;3130;41.564;23.280;2023-04-15T14:57:07;4.57;;;3.20;;
6193;SDS011;3130;41.564;23.280;2023-04-15T14:59:34;2.53;;;2.33;;
6193;SDS011;3130;41.564;23.280;2023-04-15T15:02:03;4.07;;;2.33;;
6193;SDS011;3130;41.564;23.280;2023-04-15T15:04:30;3.93;;;2.40;;
6193;SDS011;3130;41.564;23.280;2023-04-15T15:06:57;5.73;;;3.60;;